sensor_id;sensor_type;location;lat;lon;timestamp;P1;durP1;ratioP1;P2;durP2;ratioP2
75885;SDS011;64561;44.018;10.144;2023-07-28T00:01:11;6.75;;;2.83;;
75885;SDS011;64561;44.018;10.144;2023-07-28T00:03:38;7.18;;;2.67;;
75885;SDS011;64561;44.018;10.144;2023-07-28T00:06:06;5.70;;;2.78;;
75885;SDS011;64561;44.018;10.144;2023-07-28T00:08:33;8.00;;;2.83;;
75885;SDS011;64561;44.018;10.144;2023-07-28T00:11:00;5.97;;;3.13;;
75885;SDS011;64561;44.018;10.144;2023-07-28T00:13:27;6.75;;;2.70;;
75885;SDS011;64561;44.018;10.144;2023-07-28T00:15:55;8.65;;;2.70;;
75885;SDS011;64561;44.018;10.144;2023-07-28T00:18:22;8.18;;;3.55;;
75885;SDS011;64561;44.018;10.144;2023-07-28T00:20:49;8.30;;;2.90;;
75885;SDS011;64561;44.018;10.144;2023-07-28T00:23:16;9.07;;;2.97;;
75885;SDS011;64561;44.018;10.144;2023-07-28T00:25:43;8.60;;;2.85;;
75885;SDS011;64561;44.018;10.144;2023-07-28T00:28:10;5.97;;;2.45;;
75885;SDS011;64561;44.018;10.144;2023-07-28T00:30:37;10.40;;;3.10;;
75885;SDS011;64561;44.018;10.144;2023-07-28T00:33:05;8.32;;;2.95;;
75885;SDS011;64561;44.018;10.144;2023-07-28T00:35:32;5.65;;;2.75;;
75885;SDS011;64561;44.018;10.144;2023-07-28T00:37:59;4.18;;;2.72;;
75885;SDS011;64561;44.018;10.144;2023-07-28T00:40:26;7.75;;;2.42;;
75885;SDS011;64561;44.018;10.144;2023-07-28T00:42:53;4.72;;;2.53;;
75885;SDS011;64561;44.018;10.144;2023-07-28T00:45:21;4.95;;;2.75;;
75885;SDS011;64561;44.018;10.144;2023-07-28T00:47:48;5.25;;;2.17;;
75885;SDS011;64561;44.018;10.144;2023-07-28T00:50:16;6.30;;;3.03;;
75885;SDS011;64561;44.018;10.144;2023-07-28T00:52:43;6.00;;;2.58;;
75885;SDS011;64561;44.018;10.144;2023-07-28T00:55:10;6.10;;;2.40;;
75885;SDS011;64561;44.018;10.144;2023-07-28T00:57:37;5.38;;;2.50;;
75885;SDS011;64561;44.018;10.144;2023-07-28T01:00:06;6.22;;;2.90;;
75885;SDS011;64561;44.018;10.144;2023-07-28T01:02:34;6.85;;;2.75;;
75885;SDS011;64561;44.018;10.144;2023-07-28T01:05:05;8.18;;;3.03;;
75885;SDS011;64561;44.018;10.144;2023-07-28T01:07:43;5.68;;;2.60;;
75885;SDS011;64561;44.018;10.144;2023-07-28T01:10:18;5.00;;;2.53;;
75885;SDS011;64561;44.018;10.144;2023-07-28T01:12:56;8.18;;;2.70;;
75885;SDS011;64561;44.018;10.144;2023-07-28T01:15:23;4.65;;;2.25;;
75885;SDS011;64561;44.018;10.144;2023-07-28T01:17:51;7.53;;;3.00;;
75885;SDS011;64561;44.018;10.144;2023-07-28T01:20:19;4.20;;;2.22;;
75885;SDS011;64561;44.018;10.144;2023-07-28T01:28:10;8.05;;;2.92;;
75885;SDS011;64561;44.018;10.144;2023-07-28T01:30:39;6.78;;;2.67;;
75885;SDS011;64561;44.018;10.144;2023-07-28T01:33:07;7.57;;;2.70;;
75885;SDS011;64561;44.018;10.144;2023-07-28T01:35:38;6.20;;;2.70;;
75885;SDS011;64561;44.018;10.144;2023-07-28T01:38:05;7.10;;;2.58;;
75885;SDS011;64561;44.018;10.144;2023-07-28T01:40:32;6.72;;;2.88;;
75885;SDS011;64561;44.018;10.144;2023-07-28T01:42:59;7.25;;;2.72;;
75885;SDS011;64561;44.018;10.144;2023-07-28T01:45:27;6.28;;;3.20;;
75885;SDS011;64561;44.018;10.144;2023-07-28T01:47:54;6.10;;;2.53;;
75885;SDS011;64561;44.018;10.144;2023-07-28T01:50:21;5.28;;;2.58;;
75885;SDS011;64561;44.018;10.144;2023-07-28T01:52:49;6.57;;;2.90;;
75885;SDS011;64561;44.018;10.144;2023-07-28T01:55:16;6.15;;;2.42;;
75885;SDS011;64561;44.018;10.144;2023-07-28T01:57:50;6.13;;;2.90;;
75885;SDS011;64561;44.018;10.144;2023-07-28T02:00:22;4.57;;;1.98;;
75885;SDS011;64561;44.018;10.144;2023-07-28T02:02:49;6.65;;;3.17;;
75885;SDS011;64561;44.018;10.144;2023-07-28T02:05:17;7.30;;;2.75;;
75885;SDS011;64561;44.018;10.144;2023-07-28T02:07:45;10.40;;;3.80;;
75885;SDS011;64561;44.018;10.144;2023-07-28T02:10:13;7.53;;;2.72;;
75885;SDS011;64561;44.018;10.144;2023-07-28T02:12:40;6.40;;;2.78;;
75885;SDS011;64561;44.018;10.144;2023-07-28T02:15:09;4.93;;;2.58;;
75885;SDS011;64561;44.018;10.144;2023-07-28T02:17:36;6.32;;;2.50;;
75885;SDS011;64561;44.018;10.144;2023-07-28T02:20:03;4.25;;;2.58;;
75885;SDS011;64561;44.018;10.144;2023-07-28T02:22:31;4.07;;;2.40;;
75885;SDS011;64561;44.018;10.144;2023-07-28T02:24:59;5.35;;;3.00;;
75885;SDS011;64561;44.018;10.144;2023-07-28T02:27:32;5.22;;;2.60;;
75885;SDS011;64561;44.018;10.144;2023-07-28T02:29:59;5.60;;;2.75;;
75885;SDS011;64561;44.018;10.144;2023-07-28T02:32:31;9.23;;;3.30;;
75885;SDS011;64561;44.018;10.144;2023-07-28T02:35:00;5.88;;;2.67;;
75885;SDS011;64561;44.018;10.144;2023-07-28T02:37:29;4.82;;;2.25;;
75885;SDS011;64561;44.018;10.144;2023-07-28T02:39:57;8.68;;;2.80;;
75885;SDS011;64561;44.018;10.144;2023-07-28T02:42:24;5.00;;;2.70;;
75885;SDS011;64561;44.018;10.144;2023-07-28T02:44:52;4.60;;;2.92;;
75885;SDS011;64561;44.018;10.144;2023-07-28T02:47:19;6.53;;;2.78;;
75885;SDS011;64561;44.018;10.144;2023-07-28T02:49:46;5.38;;;2.80;;
75885;SDS011;64561;44.018;10.144;2023-07-28T02:52:13;5.13;;;3.08;;
75885;SDS011;64561;44.018;10.144;2023-07-28T02:54:40;5.32;;;2.67;;
75885;SDS011;64561;44.018;10.144;2023-07-28T02:57:08;7.57;;;3.00;;
75885;SDS011;64561;44.018;10.144;2023-07-28T02:59:41;6.30;;;2.90;;
75885;SDS011;64561;44.018;10.144;2023-07-28T03:02:09;4.28;;;2.53;;
75885;SDS011;64561;44.018;10.144;2023-07-28T03:04:36;6.10;;;2.60;;
75885;SDS011;64561;44.018;10.144;2023-07-28T03:07:12;7.38;;;3.38;;
75885;SDS011;64561;44.018;10.144;2023-07-28T03:09:41;9.27;;;3.60;;
75885;SDS011;64561;44.018;10.144;2023-07-28T03:12:08;6.72;;;3.15;;
75885;SDS011;64561;44.018;10.144;2023-07-28T03:14:35;10.75;;;3.83;;
75885;SDS011;64561;44.018;10.144;2023-07-28T03:17:03;5.05;;;3.50;;
75885;SDS011;64561;44.018;10.144;2023-07-28T03:19:30;6.22;;;4.18;;
75885;SDS011;64561;44.018;10.144;2023-07-28T03:21:58;9.27;;;3.80;;
75885;SDS011;64561;44.018;10.144;2023-07-28T03:24:25;8.00;;;3.70;;
75885;SDS011;64561;44.018;10.144;2023-07-28T03:26:52;8.20;;;3.95;;
75885;SDS011;64561;44.018;10.144;2023-07-28T03:29:19;7.35;;;4.57;;
75885;SDS011;64561;44.018;10.144;2023-07-28T03:31:47;6.20;;;4.38;;
75885;SDS011;64561;44.018;10.144;2023-07-28T03:34:16;10.32;;;5.90;;
75885;SDS011;64561;44.018;10.144;2023-07-28T03:36:43;8.23;;;5.10;;
75885;SDS011;64561;44.018;10.144;2023-07-28T03:39:10;7.85;;;4.78;;
75885;SDS011;64561;44.018;10.144;2023-07-28T03:41:37;8.00;;;4.20;;
75885;SDS011;64561;44.018;10.144;2023-07-28T03:44:05;10.90;;;5.10;;
75885;SDS011;64561;44.018;10.144;2023-07-28T03:46:32;7.15;;;4.45;;
75885;SDS011;64561;44.018;10.144;2023-07-28T03:48:59;9.65;;;4.63;;
75885;SDS011;64561;44.018;10.144;2023-07-28T03:51:27;7.28;;;4.47;;
75885;SDS011;64561;44.018;10.144;2023-07-28T03:53:54;7.18;;;5.03;;
75885;SDS011;64561;44.018;10.144;2023-07-28T03:56:21;8.88;;;4.95;;
75885;SDS011;64561;44.018;10.144;2023-07-28T03:58:48;7.75;;;4.32;;
75885;SDS011;64561;44.018;10.144;2023-07-28T04:01:15;10.05;;;4.45;;
75885;SDS011;64561;44.018;10.144;2023-07-28T04:03:43;8.07;;;3.67;;
75885;SDS011;64561;44.018;10.144;2023-07-28T04:06:10;9.52;;;4.50;;
75885;SDS011;64561;44.018;10.144;2023-07-28T04:08:41;9.60;;;3.95;;
75885;SDS011;64561;44.018;10.144;2023-07-28T04:11:08;8.25;;;4.25;;
75885;SDS011;64561;44.018;10.144;2023-07-28T04:13:36;7.30;;;3.80;;
75885;SDS011;64561;44.018;10.144;2023-07-28T04:16:03;7.55;;;4.25;;
75885;SDS011;64561;44.018;10.144;2023-07-28T04:18:30;8.40;;;4.00;;
75885;SDS011;64561;44.018;10.144;2023-07-28T04:20:58;7.20;;;3.65;;
75885;SDS011;64561;44.018;10.144;2023-07-28T04:23:26;8.32;;;4.13;;
75885;SDS011;64561;44.018;10.144;2023-07-28T04:25:53;10.15;;;4.45;;
75885;SDS011;64561;44.018;10.144;2023-07-28T04:28:22;6.07;;;3.63;;
75885;SDS011;64561;44.018;10.144;2023-07-28T04:30:52;6.70;;;4.25;;
75885;SDS011;64561;44.018;10.144;2023-07-28T04:33:42;5.95;;;3.95;;
75885;SDS011;64561;44.018;10.144;2023-07-28T04:36:10;7.38;;;4.05;;
75885;SDS011;64561;44.018;10.144;2023-07-28T04:38:37;10.68;;;4.07;;
75885;SDS011;64561;44.018;10.144;2023-07-28T04:41:05;12.18;;;4.43;;
75885;SDS011;64561;44.018;10.144;2023-07-28T04:43:58;9.43;;;4.18;;
75885;SDS011;64561;44.018;10.144;2023-07-28T04:46:29;8.32;;;5.00;;
75885;SDS011;64561;44.018;10.144;2023-07-28T04:48:56;7.75;;;3.70;;
75885;SDS011;64561;44.018;10.144;2023-07-28T04:51:44;8.73;;;4.32;;
75885;SDS011;64561;44.018;10.144;2023-07-28T04:54:40;7.38;;;3.40;;
75885;SDS011;64561;44.018;10.144;2023-07-28T04:57:07;9.45;;;4.80;;
75885;SDS011;64561;44.018;10.144;2023-07-28T04:59:37;12.30;;;4.47;;
75885;SDS011;64561;44.018;10.144;2023-07-28T05:02:04;12.98;;;5.00;;
75885;SDS011;64561;44.018;10.144;2023-07-28T05:04:32;10.02;;;4.53;;
75885;SDS011;64561;44.018;10.144;2023-07-28T05:06:59;8.88;;;4.28;;
75885;SDS011;64561;44.018;10.144;2023-07-28T05:09:27;8.65;;;4.38;;
75885;SDS011;64561;44.018;10.144;2023-07-28T05:11:55;10.88;;;4.45;;
75885;SDS011;64561;44.018;10.144;2023-07-28T05:14:24;10.27;;;4.53;;
75885;SDS011;64561;44.018;10.144;2023-07-28T05:16:51;10.55;;;4.55;;
75885;SDS011;64561;44.018;10.144;2023-07-28T05:19:21;9.40;;;4.28;;
75885;SDS011;64561;44.018;10.144;2023-07-28T05:22:15;9.15;;;4.03;;
75885;SDS011;64561;44.018;10.144;2023-07-28T05:24:50;12.43;;;5.22;;
75885;SDS011;64561;44.018;10.144;2023-07-28T05:27:22;9.05;;;5.15;;
75885;SDS011;64561;44.018;10.144;2023-07-28T05:29:49;10.60;;;5.65;;
75885;SDS011;64561;44.018;10.144;2023-07-28T05:32:16;7.22;;;4.43;;
75885;SDS011;64561;44.018;10.144;2023-07-28T05:35:05;14.10;;;5.80;;
75885;SDS011;64561;44.018;10.144;2023-07-28T05:37:33;9.23;;;5.20;;
75885;SDS011;64561;44.018;10.144;2023-07-28T05:40:00;12.30;;;7.30;;
75885;SDS011;64561;44.018;10.144;2023-07-28T05:42:32;16.17;;;7.20;;
75885;SDS011;64561;44.018;10.144;2023-07-28T05:44:59;11.13;;;6.30;;
75885;SDS011;64561;44.018;10.144;2023-07-28T05:47:27;12.02;;;5.85;;
75885;SDS011;64561;44.018;10.144;2023-07-28T05:49:55;8.05;;;3.58;;
75885;SDS011;64561;44.018;10.144;2023-07-28T05:52:22;9.48;;;3.13;;
75885;SDS011;64561;44.018;10.144;2023-07-28T05:54:50;6.47;;;3.58;;
75885;SDS011;64561;44.018;10.144;2023-07-28T05:57:17;5.00;;;2.95;;
75885;SDS011;64561;44.018;10.144;2023-07-28T05:59:44;4.82;;;2.58;;
75885;SDS011;64561;44.018;10.144;2023-07-28T06:02:11;4.85;;;2.55;;
75885;SDS011;64561;44.018;10.144;2023-07-28T06:04:47;7.88;;;3.78;;
75885;SDS011;64561;44.018;10.144;2023-07-28T06:07:14;8.15;;;3.60;;
75885;SDS011;64561;44.018;10.144;2023-07-28T06:09:42;9.23;;;3.90;;
75885;SDS011;64561;44.018;10.144;2023-07-28T06:12:09;8.32;;;3.63;;
75885;SDS011;64561;44.018;10.144;2023-07-28T06:14:37;8.77;;;3.22;;
75885;SDS011;64561;44.018;10.144;2023-07-28T06:17:06;9.40;;;3.67;;
75885;SDS011;64561;44.018;10.144;2023-07-28T06:19:34;6.68;;;3.22;;
75885;SDS011;64561;44.018;10.144;2023-07-28T06:22:02;6.53;;;2.72;;
75885;SDS011;64561;44.018;10.144;2023-07-28T06:24:31;6.80;;;3.30;;
75885;SDS011;64561;44.018;10.144;2023-07-28T06:27:00;7.32;;;2.70;;
75885;SDS011;64561;44.018;10.144;2023-07-28T06:29:30;9.20;;;3.33;;
75885;SDS011;64561;44.018;10.144;2023-07-28T06:31:57;5.72;;;2.55;;
75885;SDS011;64561;44.018;10.144;2023-07-28T06:34:24;6.63;;;2.80;;
75885;SDS011;64561;44.018;10.144;2023-07-28T06:36:51;6.25;;;2.70;;
75885;SDS011;64561;44.018;10.144;2023-07-28T06:39:20;6.95;;;2.45;;
75885;SDS011;64561;44.018;10.144;2023-07-28T06:41:47;8.52;;;2.90;;
75885;SDS011;64561;44.018;10.144;2023-07-28T06:44:16;8.13;;;2.75;;
75885;SDS011;64561;44.018;10.144;2023-07-28T06:46:45;6.25;;;2.97;;
75885;SDS011;64561;44.018;10.144;2023-07-28T06:49:12;6.28;;;3.17;;
75885;SDS011;64561;44.018;10.144;2023-07-28T06:51:39;8.88;;;4.15;;
75885;SDS011;64561;44.018;10.144;2023-07-28T06:54:06;7.15;;;3.70;;
75885;SDS011;64561;44.018;10.144;2023-07-28T06:56:39;11.60;;;4.20;;
75885;SDS011;64561;44.018;10.144;2023-07-28T06:59:07;12.50;;;4.38;;
75885;SDS011;64561;44.018;10.144;2023-07-28T07:01:47;13.68;;;3.72;;
75885;SDS011;64561;44.018;10.144;2023-07-28T07:04:14;14.93;;;5.13;;
75885;SDS011;64561;44.018;10.144;2023-07-28T07:06:42;9.45;;;3.40;;
75885;SDS011;64561;44.018;10.144;2023-07-28T07:09:09;7.32;;;3.60;;
75885;SDS011;64561;44.018;10.144;2023-07-28T07:11:36;9.20;;;3.95;;
75885;SDS011;64561;44.018;10.144;2023-07-28T07:14:04;7.70;;;3.67;;
75885;SDS011;64561;44.018;10.144;2023-07-28T07:16:32;8.55;;;3.00;;
75885;SDS011;64561;44.018;10.144;2023-07-28T07:19:00;6.70;;;3.08;;
75885;SDS011;64561;44.018;10.144;2023-07-28T07:21:27;7.57;;;3.38;;
75885;SDS011;64561;44.018;10.144;2023-07-28T07:23:54;12.63;;;3.42;;
75885;SDS011;64561;44.018;10.144;2023-07-28T07:26:24;8.02;;;3.60;;
75885;SDS011;64561;44.018;10.144;2023-07-28T07:28:52;7.38;;;3.72;;
75885;SDS011;64561;44.018;10.144;2023-07-28T07:31:20;9.48;;;3.53;;
75885;SDS011;64561;44.018;10.144;2023-07-28T07:33:47;9.30;;;3.88;;
75885;SDS011;64561;44.018;10.144;2023-07-28T07:36:15;9.75;;;3.53;;
75885;SDS011;64561;44.018;10.144;2023-07-28T07:38:43;5.75;;;3.70;;
75885;SDS011;64561;44.018;10.144;2023-07-28T07:41:14;11.70;;;3.55;;
75885;SDS011;64561;44.018;10.144;2023-07-28T07:43:48;11.10;;;3.30;;
75885;SDS011;64561;44.018;10.144;2023-07-28T07:46:16;8.63;;;3.65;;
75885;SDS011;64561;44.018;10.144;2023-07-28T07:48:46;7.80;;;3.58;;
75885;SDS011;64561;44.018;10.144;2023-07-28T07:51:14;5.75;;;3.15;;
75885;SDS011;64561;44.018;10.144;2023-07-28T07:53:41;5.38;;;3.20;;
75885;SDS011;64561;44.018;10.144;2023-07-28T07:56:09;7.95;;;2.65;;
75885;SDS011;64561;44.018;10.144;2023-07-28T07:58:36;8.07;;;3.55;;
75885;SDS011;64561;44.018;10.144;2023-07-28T08:01:03;8.65;;;3.58;;
75885;SDS011;64561;44.018;10.144;2023-07-28T08:03:31;8.52;;;3.35;;
75885;SDS011;64561;44.018;10.144;2023-07-28T08:05:59;6.97;;;3.13;;
75885;SDS011;64561;44.018;10.144;2023-07-28T08:08:26;8.68;;;3.42;;
75885;SDS011;64561;44.018;10.144;2023-07-28T08:10:54;7.22;;;2.90;;
75885;SDS011;64561;44.018;10.144;2023-07-28T08:13:22;7.00;;;3.33;;
75885;SDS011;64561;44.018;10.144;2023-07-28T08:15:50;9.23;;;3.60;;
75885;SDS011;64561;44.018;10.144;2023-07-28T08:18:19;6.50;;;2.83;;
75885;SDS011;64561;44.018;10.144;2023-07-28T08:20:46;7.68;;;2.88;;
75885;SDS011;64561;44.018;10.144;2023-07-28T08:23:13;7.72;;;3.10;;
75885;SDS011;64561;44.018;10.144;2023-07-28T08:25:40;5.68;;;3.25;;
75885;SDS011;64561;44.018;10.144;2023-07-28T08:28:07;7.97;;;3.42;;
75885;SDS011;64561;44.018;10.144;2023-07-28T08:30:36;4.30;;;2.70;;
75885;SDS011;64561;44.018;10.144;2023-07-28T08:33:03;7.20;;;3.13;;
75885;SDS011;64561;44.018;10.144;2023-07-28T08:35:30;6.97;;;3.53;;
75885;SDS011;64561;44.018;10.144;2023-07-28T08:37:57;6.80;;;2.72;;
75885;SDS011;64561;44.018;10.144;2023-07-28T08:40:25;9.32;;;4.50;;
75885;SDS011;64561;44.018;10.144;2023-07-28T08:42:54;5.72;;;3.30;;
75885;SDS011;64561;44.018;10.144;2023-07-28T08:45:22;6.07;;;2.70;;
75885;SDS011;64561;44.018;10.144;2023-07-28T08:47:50;7.28;;;2.90;;
75885;SDS011;64561;44.018;10.144;2023-07-28T08:50:17;6.97;;;3.30;;
75885;SDS011;64561;44.018;10.144;2023-07-28T08:52:45;7.45;;;2.90;;
75885;SDS011;64561;44.018;10.144;2023-07-28T08:55:12;4.47;;;2.50;;
75885;SDS011;64561;44.018;10.144;2023-07-28T08:57:40;6.05;;;2.63;;
75885;SDS011;64561;44.018;10.144;2023-07-28T09:00:08;8.88;;;2.67;;
75885;SDS011;64561;44.018;10.144;2023-07-28T09:02:37;5.63;;;2.30;;
75885;SDS011;64561;44.018;10.144;2023-07-28T09:05:04;5.60;;;2.60;;
75885;SDS011;64561;44.018;10.144;2023-07-28T09:07:35;5.38;;;3.13;;
75885;SDS011;64561;44.018;10.144;2023-07-28T09:10:05;7.97;;;3.00;;
75885;SDS011;64561;44.018;10.144;2023-07-28T09:12:33;4.68;;;3.30;;
75885;SDS011;64561;44.018;10.144;2023-07-28T09:15:00;7.45;;;3.13;;
75885;SDS011;64561;44.018;10.144;2023-07-28T09:17:31;7.88;;;3.05;;
75885;SDS011;64561;44.018;10.144;2023-07-28T09:19:59;5.82;;;2.67;;
75885;SDS011;64561;44.018;10.144;2023-07-28T09:22:27;7.85;;;3.10;;
75885;SDS011;64561;44.018;10.144;2023-07-28T09:24:56;4.88;;;2.63;;
75885;SDS011;64561;44.018;10.144;2023-07-28T09:27:27;8.57;;;2.80;;
75885;SDS011;64561;44.018;10.144;2023-07-28T09:29:56;6.55;;;3.00;;
75885;SDS011;64561;44.018;10.144;2023-07-28T09:32:27;6.20;;;3.15;;
75885;SDS011;64561;44.018;10.144;2023-07-28T09:35:07;6.00;;;2.92;;
75885;SDS011;64561;44.018;10.144;2023-07-28T09:37:40;10.88;;;3.65;;
75885;SDS011;64561;44.018;10.144;2023-07-28T09:40:10;6.78;;;3.33;;
75885;SDS011;64561;44.018;10.144;2023-07-28T09:42:40;7.95;;;4.00;;
75885;SDS011;64561;44.018;10.144;2023-07-28T09:45:20;5.60;;;3.65;;
75885;SDS011;64561;44.018;10.144;2023-07-28T09:48:05;8.35;;;3.47;;
75885;SDS011;64561;44.018;10.144;2023-07-28T09:50:37;7.35;;;3.00;;
75885;SDS011;64561;44.018;10.144;2023-07-28T09:53:07;6.88;;;2.72;;
75885;SDS011;64561;44.018;10.144;2023-07-28T09:55:38;5.18;;;2.67;;
75885;SDS011;64561;44.018;10.144;2023-07-28T09:58:09;8.43;;;3.58;;
75885;SDS011;64561;44.018;10.144;2023-07-28T10:03:07;6.63;;;3.20;;
75885;SDS011;64561;44.018;10.144;2023-07-28T10:05:36;6.60;;;3.47;;
75885;SDS011;64561;44.018;10.144;2023-07-28T10:08:05;7.85;;;2.85;;
75885;SDS011;64561;44.018;10.144;2023-07-28T10:10:33;6.50;;;2.88;;
75885;SDS011;64561;44.018;10.144;2023-07-28T10:13:01;4.07;;;2.75;;
75885;SDS011;64561;44.018;10.144;2023-07-28T10:15:30;5.97;;;2.70;;
75885;SDS011;64561;44.018;10.144;2023-07-28T10:17:59;4.78;;;2.97;;
75885;SDS011;64561;44.018;10.144;2023-07-28T10:25:42;6.85;;;3.30;;
75885;SDS011;64561;44.018;10.144;2023-07-28T10:28:29;6.30;;;3.10;;
75885;SDS011;64561;44.018;10.144;2023-07-28T10:30:59;6.47;;;2.80;;
75885;SDS011;64561;44.018;10.144;2023-07-28T10:33:34;10.48;;;3.10;;
75885;SDS011;64561;44.018;10.144;2023-07-28T10:42:07;6.25;;;3.00;;
75885;SDS011;64561;44.018;10.144;2023-07-28T10:44:36;5.63;;;3.17;;
75885;SDS011;64561;44.018;10.144;2023-07-28T10:47:12;6.03;;;2.78;;
75885;SDS011;64561;44.018;10.144;2023-07-28T10:49:40;6.47;;;3.03;;
75885;SDS011;64561;44.018;10.144;2023-07-28T10:52:07;7.25;;;2.80;;
75885;SDS011;64561;44.018;10.144;2023-07-28T10:54:35;9.02;;;3.47;;
75885;SDS011;64561;44.018;10.144;2023-07-28T10:57:02;4.82;;;2.35;;
75885;SDS011;64561;44.018;10.144;2023-07-28T11:02:00;4.63;;;2.50;;
75885;SDS011;64561;44.018;10.144;2023-07-28T11:04:27;6.85;;;2.63;;
75885;SDS011;64561;44.018;10.144;2023-07-28T11:06:54;6.20;;;2.85;;
75885;SDS011;64561;44.018;10.144;2023-07-28T11:09:22;4.85;;;2.47;;
75885;SDS011;64561;44.018;10.144;2023-07-28T11:11:53;5.13;;;3.17;;
75885;SDS011;64561;44.018;10.144;2023-07-28T11:14:20;5.80;;;2.58;;
75885;SDS011;64561;44.018;10.144;2023-07-28T11:16:48;6.05;;;2.78;;
75885;SDS011;64561;44.018;10.144;2023-07-28T11:19:17;5.43;;;2.67;;
75885;SDS011;64561;44.018;10.144;2023-07-28T11:21:52;4.55;;;2.70;;
75885;SDS011;64561;44.018;10.144;2023-07-28T11:24:20;7.32;;;2.53;;
75885;SDS011;64561;44.018;10.144;2023-07-28T11:26:49;5.75;;;2.80;;
75885;SDS011;64561;44.018;10.144;2023-07-28T11:29:18;4.35;;;3.55;;
75885;SDS011;64561;44.018;10.144;2023-07-28T11:31:47;5.03;;;2.80;;
75885;SDS011;64561;44.018;10.144;2023-07-28T11:34:15;5.95;;;2.83;;
75885;SDS011;64561;44.018;10.144;2023-07-28T11:36:46;5.40;;;2.85;;
75885;SDS011;64561;44.018;10.144;2023-07-28T11:39:14;7.40;;;3.13;;
75885;SDS011;64561;44.018;10.144;2023-07-28T11:41:42;6.15;;;2.95;;
75885;SDS011;64561;44.018;10.144;2023-07-28T11:44:10;6.57;;;3.30;;
75885;SDS011;64561;44.018;10.144;2023-07-28T11:46:39;4.93;;;2.53;;
75885;SDS011;64561;44.018;10.144;2023-07-28T11:49:09;6.57;;;2.85;;
75885;SDS011;64561;44.018;10.144;2023-07-28T11:51:40;12.35;;;3.00;;
75885;SDS011;64561;44.018;10.144;2023-07-28T11:54:11;6.38;;;3.10;;
75885;SDS011;64561;44.018;10.144;2023-07-28T11:56:42;5.53;;;3.00;;
75885;SDS011;64561;44.018;10.144;2023-07-28T11:59:10;5.75;;;3.55;;
75885;SDS011;64561;44.018;10.144;2023-07-28T12:02:00;17.17;;;4.30;;
75885;SDS011;64561;44.018;10.144;2023-07-28T12:04:36;5.40;;;3.10;;
75885;SDS011;64561;44.018;10.144;2023-07-28T12:12:16;8.15;;;3.70;;
75885;SDS011;64561;44.018;10.144;2023-07-28T12:14:47;9.18;;;3.78;;
75885;SDS011;64561;44.018;10.144;2023-07-28T12:17:35;5.95;;;3.42;;
75885;SDS011;64561;44.018;10.144;2023-07-28T12:20:07;12.00;;;5.20;;
75885;SDS011;64561;44.018;10.144;2023-07-28T12:22:44;6.22;;;3.25;;
75885;SDS011;64561;44.018;10.144;2023-07-28T12:25:11;7.53;;;3.28;;
75885;SDS011;64561;44.018;10.144;2023-07-28T12:27:39;7.55;;;3.42;;
75885;SDS011;64561;44.018;10.144;2023-07-28T12:30:06;7.28;;;3.65;;
75885;SDS011;64561;44.018;10.144;2023-07-28T12:32:40;6.13;;;3.20;;
75885;SDS011;64561;44.018;10.144;2023-07-28T12:35:28;5.97;;;3.60;;
75885;SDS011;64561;44.018;10.144;2023-07-28T12:38:02;4.97;;;3.30;;
75885;SDS011;64561;44.018;10.144;2023-07-28T12:40:36;5.53;;;3.40;;
75885;SDS011;64561;44.018;10.144;2023-07-28T12:43:06;8.38;;;3.13;;
75885;SDS011;64561;44.018;10.144;2023-07-28T12:45:34;6.10;;;2.90;;
75885;SDS011;64561;44.018;10.144;2023-07-28T12:48:04;5.97;;;3.03;;
75885;SDS011;64561;44.018;10.144;2023-07-28T12:50:31;7.93;;;3.25;;
75885;SDS011;64561;44.018;10.144;2023-07-28T12:53:01;6.85;;;2.80;;
75885;SDS011;64561;44.018;10.144;2023-07-28T12:55:40;4.40;;;3.63;;
75885;SDS011;64561;44.018;10.144;2023-07-28T12:58:26;7.22;;;3.10;;
75885;SDS011;64561;44.018;10.144;2023-07-28T13:00:56;6.50;;;3.53;;
75885;SDS011;64561;44.018;10.144;2023-07-28T13:03:27;7.47;;;3.22;;
75885;SDS011;64561;44.018;10.144;2023-07-28T13:05:55;6.20;;;3.20;;
75885;SDS011;64561;44.018;10.144;2023-07-28T13:08:22;8.13;;;3.45;;
75885;SDS011;64561;44.018;10.144;2023-07-28T13:10:52;6.25;;;3.40;;
75885;SDS011;64561;44.018;10.144;2023-07-28T13:13:22;6.68;;;3.08;;
75885;SDS011;64561;44.018;10.144;2023-07-28T13:15:50;4.72;;;3.17;;
75885;SDS011;64561;44.018;10.144;2023-07-28T13:18:17;12.13;;;4.63;;
75885;SDS011;64561;44.018;10.144;2023-07-28T13:20:44;4.93;;;2.85;;
75885;SDS011;64561;44.018;10.144;2023-07-28T13:23:11;5.43;;;3.10;;
75885;SDS011;64561;44.018;10.144;2023-07-28T13:25:39;6.35;;;3.00;;
75885;SDS011;64561;44.018;10.144;2023-07-28T13:28:06;7.82;;;3.22;;
75885;SDS011;64561;44.018;10.144;2023-07-28T13:30:38;6.47;;;3.15;;
75885;SDS011;64561;44.018;10.144;2023-07-28T13:33:06;7.60;;;3.70;;
75885;SDS011;64561;44.018;10.144;2023-07-28T13:35:33;4.68;;;3.00;;
75885;SDS011;64561;44.018;10.144;2023-07-28T13:38:00;6.05;;;2.95;;
75885;SDS011;64561;44.018;10.144;2023-07-28T13:40:28;7.00;;;3.75;;
75885;SDS011;64561;44.018;10.144;2023-07-28T13:42:55;7.07;;;3.00;;
75885;SDS011;64561;44.018;10.144;2023-07-28T13:45:22;6.00;;;2.83;;
75885;SDS011;64561;44.018;10.144;2023-07-28T13:47:49;6.00;;;3.28;;
75885;SDS011;64561;44.018;10.144;2023-07-28T13:50:17;7.45;;;3.05;;
75885;SDS011;64561;44.018;10.144;2023-07-28T13:52:44;10.98;;;3.28;;
75885;SDS011;64561;44.018;10.144;2023-07-28T13:55:16;7.22;;;3.55;;
75885;SDS011;64561;44.018;10.144;2023-07-28T13:57:45;6.57;;;3.05;;
75885;SDS011;64561;44.018;10.144;2023-07-28T14:00:13;7.53;;;3.13;;
75885;SDS011;64561;44.018;10.144;2023-07-28T14:02:40;6.95;;;3.95;;
75885;SDS011;64561;44.018;10.144;2023-07-28T14:05:08;8.00;;;3.30;;
75885;SDS011;64561;44.018;10.144;2023-07-28T14:07:35;6.28;;;3.10;;
75885;SDS011;64561;44.018;10.144;2023-07-28T14:10:02;9.73;;;3.30;;
75885;SDS011;64561;44.018;10.144;2023-07-28T14:12:33;5.00;;;2.97;;
75885;SDS011;64561;44.018;10.144;2023-07-28T14:15:01;6.65;;;3.25;;
75885;SDS011;64561;44.018;10.144;2023-07-28T14:17:30;4.85;;;3.05;;
75885;SDS011;64561;44.018;10.144;2023-07-28T14:19:57;6.32;;;3.50;;
75885;SDS011;64561;44.018;10.144;2023-07-28T14:22:25;6.63;;;3.50;;
75885;SDS011;64561;44.018;10.144;2023-07-28T14:24:52;7.28;;;3.38;;
75885;SDS011;64561;44.018;10.144;2023-07-28T14:27:21;6.68;;;3.00;;
75885;SDS011;64561;44.018;10.144;2023-07-28T14:29:48;6.82;;;3.47;;
75885;SDS011;64561;44.018;10.144;2023-07-28T14:32:16;4.22;;;2.60;;
75885;SDS011;64561;44.018;10.144;2023-07-28T14:34:43;8.13;;;3.63;;
75885;SDS011;64561;44.018;10.144;2023-07-28T14:37:10;8.05;;;3.33;;
75885;SDS011;64561;44.018;10.144;2023-07-28T14:39:38;6.68;;;3.28;;
75885;SDS011;64561;44.018;10.144;2023-07-28T14:42:05;13.15;;;3.60;;
75885;SDS011;64561;44.018;10.144;2023-07-28T14:44:33;6.53;;;3.63;;
75885;SDS011;64561;44.018;10.144;2023-07-28T14:47:00;7.80;;;3.22;;
75885;SDS011;64561;44.018;10.144;2023-07-28T14:49:27;5.13;;;3.65;;
75885;SDS011;64561;44.018;10.144;2023-07-28T14:51:54;7.25;;;3.63;;
75885;SDS011;64561;44.018;10.144;2023-07-28T14:54:22;6.00;;;3.10;;
75885;SDS011;64561;44.018;10.144;2023-07-28T14:56:49;7.97;;;3.63;;
75885;SDS011;64561;44.018;10.144;2023-07-28T14:59:16;8.15;;;3.00;;
75885;SDS011;64561;44.018;10.144;2023-07-28T15:01:45;6.00;;;3.70;;
75885;SDS011;64561;44.018;10.144;2023-07-28T15:04:13;5.43;;;3.20;;
75885;SDS011;64561;44.018;10.144;2023-07-28T15:06:42;5.72;;;3.22;;
75885;SDS011;64561;44.018;10.144;2023-07-28T15:09:11;4.78;;;2.83;;
75885;SDS011;64561;44.018;10.144;2023-07-28T15:11:38;8.25;;;3.10;;